page 2033 of 1019320 registered users

eBook PostsUsers

  1. 0tuananhksth registered @ 2010-10-10 09:51:17, last login @ 2010-10-10 09:51:17
  2. 0ftpabc registered @ 2010-10-10 09:53:23, last login @ 2010-10-10 09:53:23
  3. 0menqianliushui registered @ 2010-10-10 10:00:26, last login @ 2010-10-10 10:00:26
  4. 0dlsadsl registered @ 2010-10-10 10:10:26, last login @ 2010-10-10 10:10:26
  5. 0Carlosjesus registered @ 2010-10-10 10:11:12, last login @ 2010-10-10 10:32:57
  6. 0tieminxie registered @ 2010-10-10 10:13:43, last login @ 2010-10-10 10:13:43
  7. 0bookee1 registered @ 2010-10-10 10:16:12, last login @ 2010-10-10 10:16:12
  8. 0purplegreen registered @ 2010-10-10 10:23:49, last login @ 2010-10-29 17:24:01
  9. 0qwery1357 registered @ 2010-10-10 10:27:33, last login @ 2010-10-11 23:24:27
  10. 0ivvfy registered @ 2010-10-10 10:28:27, last login @ 2010-10-10 10:28:27
  11. 0liurui19820827 registered @ 2010-10-10 10:37:24, last login @ 2010-10-10 10:37:24
  12. 0zhao123 registered @ 2010-10-10 10:38:41, last login @ 2010-10-10 10:40:29
  13. 0yubu registered @ 2010-10-10 10:49:33, last login @ 2010-10-10 10:49:33
  14. 0tfscifi registered @ 2010-10-10 10:55:20, last login @ 2010-10-10 10:55:20
  15. 0tre registered @ 2010-10-10 10:58:44, last login @ 2010-10-10 10:58:44
  16. 0zfzhang registered @ 2010-10-10 11:03:46, last login @ 2010-10-10 11:03:46
  17. 0m2579 registered @ 2010-10-10 11:05:12, last login @ 2010-10-10 11:13:09
  18. 0Htoomyat registered @ 2010-10-10 11:06:32, last login @ 2010-10-10 11:06:32
  19. 0hu2006 registered @ 2010-10-10 11:08:11, last login @ 2010-10-10 11:08:11
  20. 0wangzhongyuan321 registered @ 2010-10-10 11:13:47, last login @ 2010-10-10 11:13:47
  21. 0wgs registered @ 2010-10-10 11:14:25, last login @ 2010-10-10 11:14:25
  22. 0cgbeginner registered @ 2010-10-10 11:20:13, last login @ 2010-10-10 11:20:13
  23. 0huybeou19 registered @ 2010-10-10 11:20:35, last login @ 2010-10-10 11:20:35
  24. 0Rsam registered @ 2010-10-10 11:23:27, last login @ 2010-10-10 11:23:27
  25. 0yesvk registered @ 2010-10-10 11:23:32, last login @ 2010-10-10 11:23:32
  26. 0skunk2048 registered @ 2010-10-10 11:36:04, last login @ 2010-10-10 11:36:04
  27. 0littlebig registered @ 2010-10-10 11:46:32, last login @ 2010-10-10 11:46:32
  28. 0aoyoung registered @ 2010-10-10 11:54:52, last login @ 2010-10-10 11:54:52
  29. 0depot registered @ 2010-10-10 11:59:41, last login @ 2010-10-10 11:59:41
  30. 0jahnavi registered @ 2010-10-10 12:00:09, last login @ 2010-10-10 12:00:09
  31. 0nonoi63 registered @ 2010-10-10 12:03:11, last login @ 2010-10-10 12:03:11
  32. 0bachhuongduong_tn registered @ 2010-10-10 12:08:16, last login @ 2010-10-10 12:08:16
  33. 0vikipedia registered @ 2010-10-10 12:12:31, last login @ 2010-10-10 12:16:49
  34. 0hamstercc registered @ 2010-10-10 12:16:10, last login @ 2010-10-10 12:16:32
  35. 0dlut0403 registered @ 2010-10-10 12:17:43, last login @ 2010-10-10 12:17:43
  36. 0insightlight registered @ 2010-10-10 12:17:55, last login @ 2010-10-10 12:17:55
  37. 0vin745589805 registered @ 2010-10-10 12:19:36, last login @ 2010-10-10 12:21:23
  38. 0ggekko88 registered @ 2010-10-10 12:25:16, last login @ 2010-10-10 12:25:16
  39. 0alice22963609 registered @ 2010-10-10 12:32:18, last login @ 2010-10-10 12:32:41
  40. 0baggiogm registered @ 2010-10-10 12:38:47, last login @ 2010-10-10 12:39:15
  41. 0victordang registered @ 2010-10-10 12:46:33, last login @ 2010-10-10 12:46:33
  42. 0nk registered @ 2010-10-10 12:53:51, last login @ 2010-10-10 12:53:51
  43. 0jennysnowgirl registered @ 2010-10-10 13:09:36, last login @ 2010-10-10 13:09:36
  44. 0maysmile registered @ 2010-10-10 13:12:17, last login @ 2010-10-10 13:12:17
  45. 0shanshiwycf registered @ 2010-10-10 13:12:37, last login @ 2010-10-10 13:23:00
  46. 0just2008 registered @ 2010-10-10 13:23:01, last login @ 2010-10-10 13:25:44
  47. 0wumign23 registered @ 2010-10-10 13:27:29, last login @ 2010-10-10 13:27:29
  48. 0Garlic registered @ 2010-10-10 13:27:48, last login @ 2010-10-10 14:24:47
  49. 0tinnt41739 registered @ 2010-10-10 13:29:38, last login @ 2010-10-10 13:29:38
  50. 0msh2945 registered @ 2010-10-10 13:30:14, last login @ 2010-10-10 13:30:14
  51. 0yansen registered @ 2010-10-10 13:37:40, last login @ 2010-10-10 13:37:40
  52. 0ottertjie registered @ 2010-10-10 13:38:12, last login @ 2010-10-10 13:38:12
  53. 0selvin88 registered @ 2010-10-10 13:43:36, last login @ 2010-10-10 13:43:36
  54. 0eriq10 registered @ 2010-10-10 13:44:54, last login @ 2010-10-10 13:44:54
  55. 0wangliang51f registered @ 2010-10-10 13:46:31, last login @ 2010-10-10 13:46:31
  56. 0john1390 registered @ 2010-10-10 13:51:40, last login @ 2010-10-10 13:51:40
  57. 0rhythmlll registered @ 2010-10-10 13:54:28, last login @ 2010-10-10 13:54:28
  58. 0nimrus registered @ 2010-10-10 13:55:58, last login @ 2010-10-10 14:14:50
  59. 0else731 registered @ 2010-10-10 13:56:04, last login @ 2010-10-10 13:56:04
  60. 0willpig registered @ 2010-10-10 13:56:46, last login @ 2010-10-10 13:56:46
  61. 0unfortunatekid registered @ 2010-10-10 14:03:10, last login @ 2010-10-10 14:03:10
  62. 0dewen registered @ 2010-10-10 14:06:26, last login @ 2010-10-10 17:55:12
  63. 0cfonsecamac registered @ 2010-10-10 14:14:40, last login @ 2010-10-10 14:14:40
  64. 0thetemp1987 registered @ 2010-10-10 14:15:41, last login @ 2010-10-10 14:15:41
  65. 0simon_giang1111 registered @ 2010-10-10 14:19:38, last login @ 2010-10-10 14:19:38
  66. 0dogmm123456 registered @ 2010-10-10 14:20:31, last login @ 2010-10-10 14:20:31
  67. 0anubhav1112 registered @ 2010-10-10 14:20:42, last login @ 2010-10-10 14:20:42
  68. 0CJ513 registered @ 2010-10-10 14:26:05, last login @ 2010-10-10 14:26:05
  69. 0titanyuri registered @ 2010-10-10 14:26:48, last login @ 2010-10-10 14:26:57
  70. 0chuyuana3 registered @ 2010-10-10 14:34:18, last login @ 2010-10-10 14:34:18
  71. 0jasonbmt registered @ 2010-10-10 14:36:03, last login @ 2010-10-10 14:36:03
  72. 0pokerwoman registered @ 2010-10-10 14:36:36, last login @ 2010-10-10 14:36:36
  73. 0ekta18 registered @ 2010-10-10 14:42:11, last login @ 2010-10-10 14:42:11
  74. 0cee1 registered @ 2010-10-10 14:48:38, last login @ 2010-10-10 14:48:38
  75. 0archangel161 registered @ 2010-10-10 14:50:34, last login @ 2010-10-10 14:50:34
  76. 0hzrat registered @ 2010-10-10 15:01:54, last login @ 2010-10-10 15:03:16
  77. 0mahendrakumar199 registered @ 2010-10-10 15:03:28, last login @ 2010-10-10 15:04:42
  78. 0Moxen registered @ 2010-10-10 15:11:37, last login @ 2010-10-10 15:11:37
  79. 0anil_vij registered @ 2010-10-10 15:17:07, last login @ 2010-10-10 15:17:07
  80. 0Emilysisi registered @ 2010-10-10 15:20:00, last login @ 2010-10-10 15:20:00
  81. 0stellars registered @ 2010-10-10 15:22:35, last login @ 2010-10-10 15:22:35
  82. 0kimia registered @ 2010-10-10 15:34:01, last login @ 2010-10-12 15:22:31
  83. 0coolufo registered @ 2010-10-10 15:34:35, last login @ 2010-10-10 15:34:53
  84. 0myisliang registered @ 2010-10-10 15:38:08, last login @ 2010-12-17 16:06:15
  85. 0bravestone2010 registered @ 2010-10-10 15:40:25, last login @ 2010-10-10 15:40:25
  86. 0godarzi registered @ 2010-10-10 15:42:47, last login @ 2010-10-10 15:42:47
  87. 0imdadali registered @ 2010-10-10 15:50:08, last login @ 2010-10-10 15:50:08
  88. 0gmg3_iliev registered @ 2010-10-10 15:53:23, last login @ 2010-10-10 15:53:23
  89. 0happyicat registered @ 2010-10-10 15:53:57, last login @ 2010-10-10 15:53:57
  90. 0jiaxin112358 registered @ 2010-10-10 15:59:19, last login @ 2010-10-10 15:59:19
  91. 0mh12tmail registered @ 2010-10-10 16:26:15, last login @ 2010-10-10 16:26:15
  92. 0zjpixyniannian registered @ 2010-10-10 16:27:02, last login @ 2010-10-10 16:27:22
  93. 0vestas registered @ 2010-10-10 16:30:14, last login @ 2010-10-10 16:32:51
  94. 0pinned registered @ 2010-10-10 16:33:46, last login @ 2010-10-10 16:33:46
  95. 0cysstc registered @ 2010-10-10 16:33:54, last login @ 2010-10-10 16:33:54
  96. 0mnbv registered @ 2010-10-10 16:41:54, last login @ 2010-10-10 16:41:54
  97. 0fm1688v9 registered @ 2010-10-10 16:42:22, last login @ 2010-10-10 16:42:22
  98. 0junhere registered @ 2010-10-10 16:43:39, last login @ 2010-10-10 16:46:11
  99. 0Zafardeen registered @ 2010-10-10 16:53:27, last login @ 2010-10-10 16:53:27
  100. 0lindavcb registered @ 2010-10-10 16:58:11, last login @ 2010-10-10 16:58:11
  101. 0kaikai0989 registered @ 2010-10-10 16:59:44, last login @ 2010-10-10 16:59:55

More...

[2043] [2042] [2041] [2040] [2039] [2038] [2037] [2036] [2035] [2034] [2033] [2032] [2031] [2030] [2029] [2028] [2027] [2026] [2025] [2024] ...[1]
Back to Top